sensor_id;sensor_type;location;lat;lon;timestamp;temperature;humidity
3994;DHT22;2011;48.238;13.948;2022-12-20T00:00:48;-1.40;99.90
3994;DHT22;2011;48.238;13.948;2022-12-20T00:03:15;-1.40;99.90
3994;DHT22;2011;48.238;13.948;2022-12-20T00:05:43;-1.40;99.90
3994;DHT22;2011;48.238;13.948;2022-12-20T00:08:10;-1.30;99.90
3994;DHT22;2011;48.238;13.948;2022-12-20T00:10:38;-1.30;99.90
3994;DHT22;2011;48.238;13.948;2022-12-20T00:13:05;-1.30;99.90
3994;DHT22;2011;48.238;13.948;2022-12-20T00:15:33;-1.30;99.90
3994;DHT22;2011;48.238;13.948;2022-12-20T00:18:01;-1.30;99.90
3994;DHT22;2011;48.238;13.948;2022-12-20T00:20:28;-1.30;99.90
3994;DHT22;2011;48.238;13.948;2022-12-20T00:22:55;-1.30;99.90
3994;DHT22;2011;48.238;13.948;2022-12-20T00:25:22;-1.30;99.90
3994;DHT22;2011;48.238;13.948;2022-12-20T00:27:49;-1.20;99.90
3994;DHT22;2011;48.238;13.948;2022-12-20T00:30:17;-1.20;99.90
3994;DHT22;2011;48.238;13.948;2022-12-20T00:32:45;-1.20;99.90
3994;DHT22;2011;48.238;13.948;2022-12-20T00:35:13;-1.20;99.90
3994;DHT22;2011;48.238;13.948;2022-12-20T00:37:40;-1.20;99.90
3994;DHT22;2011;48.238;13.948;2022-12-20T00:40:08;-1.20;99.90
3994;DHT22;2011;48.238;13.948;2022-12-20T00:42:35;-1.20;99.90
3994;DHT22;2011;48.238;13.948;2022-12-20T00:45:02;-1.20;99.90
3994;DHT22;2011;48.238;13.948;2022-12-20T00:47:29;-1.20;99.90
3994;DHT22;2011;48.238;13.948;2022-12-20T00:49:56;-1.20;99.90
3994;DHT22;2011;48.238;13.948;2022-12-20T00:52:24;-1.10;99.90
3994;DHT22;2011;48.238;13.948;2022-12-20T00:54:51;-1.10;99.90
3994;DHT22;2011;48.238;13.948;2022-12-20T00:57:18;-1.10;99.90
3994;DHT22;2011;48.238;13.948;2022-12-20T00:59:45;-1.10;99.90
3994;DHT22;2011;48.238;13.948;2022-12-20T01:02:12;-1.00;99.90
3994;DHT22;2011;48.238;13.948;2022-12-20T01:04:38;-1.10;99.90
3994;DHT22;2011;48.238;13.948;2022-12-20T01:07:05;-1.10;99.90
3994;DHT22;2011;48.238;13.948;2022-12-20T01:09:34;-1.10;99.90
3994;DHT22;2011;48.238;13.948;2022-12-20T01:12:00;-1.10;99.90
3994;DHT22;2011;48.238;13.948;2022-12-20T01:14:27;-1.10;99.90
3994;DHT22;2011;48.238;13.948;2022-12-20T01:16:54;-1.10;99.90
3994;DHT22;2011;48.238;13.948;2022-12-20T01:19:21;-1.10;99.90
3994;DHT22;2011;48.238;13.948;2022-12-20T01:21:48;-1.10;99.90
3994;DHT22;2011;48.238;13.948;2022-12-20T01:24:16;-1.10;99.90
3994;DHT22;2011;48.238;13.948;2022-12-20T01:26:45;-1.10;99.90
3994;DHT22;2011;48.238;13.948;2022-12-20T01:29:12;-1.10;99.90
3994;DHT22;2011;48.238;13.948;2022-12-20T01:31:39;-1.10;99.90
3994;DHT22;2011;48.238;13.948;2022-12-20T01:34:06;-1.10;99.90
3994;DHT22;2011;48.238;13.948;2022-12-20T01:36:35;-1.10;99.90
3994;DHT22;2011;48.238;13.948;2022-12-20T01:39:04;-1.10;99.90
3994;DHT22;2011;48.238;13.948;2022-12-20T01:41:33;-1.00;99.90
3994;DHT22;2011;48.238;13.948;2022-12-20T01:44:03;-1.00;99.90
3994;DHT22;2011;48.238;13.948;2022-12-20T01:46:31;-1.00;99.90
3994;DHT22;2011;48.238;13.948;2022-12-20T01:49:03;-1.00;99.90
3994;DHT22;2011;48.238;13.948;2022-12-20T01:51:34;-1.00;99.90
3994;DHT22;2011;48.238;13.948;2022-12-20T01:54:05;-1.00;99.90
3994;DHT22;2011;48.238;13.948;2022-12-20T01:56:32;-1.00;99.90
3994;DHT22;2011;48.238;13.948;2022-12-20T01:59:02;-1.00;99.90
3994;DHT22;2011;48.238;13.948;2022-12-20T02:01:29;-1.00;99.90
3994;DHT22;2011;48.238;13.948;2022-12-20T02:03:56;-1.00;99.90
3994;DHT22;2011;48.238;13.948;2022-12-20T02:06:25;-0.90;99.90
3994;DHT22;2011;48.238;13.948;2022-12-20T02:08:56;-0.90;99.90
3994;DHT22;2011;48.238;13.948;2022-12-20T02:11:41;-0.90;99.90
3994;DHT22;2011;48.238;13.948;2022-12-20T02:14:21;-0.90;99.90
3994;DHT22;2011;48.238;13.948;2022-12-20T02:16:56;-0.90;99.90
3994;DHT22;2011;48.238;13.948;2022-12-20T02:19:42;-0.90;99.90
3994;DHT22;2011;48.238;13.948;2022-12-20T02:22:18;-0.80;99.90
3994;DHT22;2011;48.238;13.948;2022-12-20T02:25:13;-0.90;99.90
3994;DHT22;2011;48.238;13.948;2022-12-20T02:27:48;-0.90;99.90
3994;DHT22;2011;48.238;13.948;2022-12-20T02:30:20;-0.90;99.90
3994;DHT22;2011;48.238;13.948;2022-12-20T02:32:51;-0.90;99.90
3994;DHT22;2011;48.238;13.948;2022-12-20T02:35:22;-0.90;99.90
3994;DHT22;2011;48.238;13.948;2022-12-20T02:37:51;-0.90;99.90
3994;DHT22;2011;48.238;13.948;2022-12-20T02:40:21;-1.00;99.90
3994;DHT22;2011;48.238;13.948;2022-12-20T02:42:51;-0.90;99.90
3994;DHT22;2011;48.238;13.948;2022-12-20T02:45:24;-0.90;99.90
3994;DHT22;2011;48.238;13.948;2022-12-20T02:47:56;-0.90;99.90
3994;DHT22;2011;48.238;13.948;2022-12-20T02:50:27;-0.90;99.90
3994;DHT22;2011;48.238;13.948;2022-12-20T02:52:57;-0.90;99.90
3994;DHT22;2011;48.238;13.948;2022-12-20T02:55:32;-0.90;99.90
3994;DHT22;2011;48.238;13.948;2022-12-20T02:58:05;-0.80;99.90
3994;DHT22;2011;48.238;13.948;2022-12-20T03:00:40;-0.80;99.90
3994;DHT22;2011;48.238;13.948;2022-12-20T03:03:08;-0.80;99.90
3994;DHT22;2011;48.238;13.948;2022-12-20T03:05:49;-0.80;99.90
3994;DHT22;2011;48.238;13.948;2022-12-20T03:08:17;-0.80;99.90
3994;DHT22;2011;48.238;13.948;2022-12-20T03:10:44;-0.80;99.90
3994;DHT22;2011;48.238;13.948;2022-12-20T03:13:11;-0.70;99.90
3994;DHT22;2011;48.238;13.948;2022-12-20T03:15:39;-0.70;99.90
3994;DHT22;2011;48.238;13.948;2022-12-20T03:18:06;-0.70;99.90
3994;DHT22;2011;48.238;13.948;2022-12-20T03:20:33;-0.70;99.90
3994;DHT22;2011;48.238;13.948;2022-12-20T03:23:00;-0.70;99.90
3994;DHT22;2011;48.238;13.948;2022-12-20T03:25:27;-0.70;99.90
3994;DHT22;2011;48.238;13.948;2022-12-20T03:27:54;-0.70;99.90
3994;DHT22;2011;48.238;13.948;2022-12-20T03:30:21;-0.70;99.90
3994;DHT22;2011;48.238;13.948;2022-12-20T03:32:49;-0.70;99.90
3994;DHT22;2011;48.238;13.948;2022-12-20T03:35:16;-0.70;99.90
3994;DHT22;2011;48.238;13.948;2022-12-20T03:37:43;-0.70;99.90
3994;DHT22;2011;48.238;13.948;2022-12-20T03:40:11;-0.70;99.90
3994;DHT22;2011;48.238;13.948;2022-12-20T03:42:38;-0.70;99.90
3994;DHT22;2011;48.238;13.948;2022-12-20T03:45:05;-0.70;99.90
3994;DHT22;2011;48.238;13.948;2022-12-20T03:47:33;-0.70;99.90
3994;DHT22;2011;48.238;13.948;2022-12-20T03:50:01;-0.70;99.90
3994;DHT22;2011;48.238;13.948;2022-12-20T03:52:28;-0.70;99.90
3994;DHT22;2011;48.238;13.948;2022-12-20T03:54:55;-0.60;99.90
3994;DHT22;2011;48.238;13.948;2022-12-20T03:57:21;-0.60;99.90
3994;DHT22;2011;48.238;13.948;2022-12-20T03:59:48;-0.70;99.90
3994;DHT22;2011;48.238;13.948;2022-12-20T04:02:15;-0.70;99.90
3994;DHT22;2011;48.238;13.948;2022-12-20T04:04:42;-0.70;99.90
3994;DHT22;2011;48.238;13.948;2022-12-20T04:07:10;-0.60;99.90
3994;DHT22;2011;48.238;13.948;2022-12-20T04:09:37;-0.60;99.90
3994;DHT22;2011;48.238;13.948;2022-12-20T04:12:04;-0.70;99.90
3994;DHT22;2011;48.238;13.948;2022-12-20T04:14:31;-0.70;99.90
3994;DHT22;2011;48.238;13.948;2022-12-20T04:16:58;-0.70;99.90
3994;DHT22;2011;48.238;13.948;2022-12-20T04:19:25;-0.70;99.90
3994;DHT22;2011;48.238;13.948;2022-12-20T04:21:52;-0.70;99.90
3994;DHT22;2011;48.238;13.948;2022-12-20T04:24:21;-0.70;99.90
3994;DHT22;2011;48.238;13.948;2022-12-20T04:26:48;-0.70;99.90
3994;DHT22;2011;48.238;13.948;2022-12-20T04:29:15;-0.70;99.90
3994;DHT22;2011;48.238;13.948;2022-12-20T04:31:42;-0.70;99.90
3994;DHT22;2011;48.238;13.948;2022-12-20T04:34:09;-0.80;99.90
3994;DHT22;2011;48.238;13.948;2022-12-20T04:36:36;-0.70;99.90
3994;DHT22;2011;48.238;13.948;2022-12-20T04:39:03;-0.70;99.90
3994;DHT22;2011;48.238;13.948;2022-12-20T04:41:31;-0.70;99.90
3994;DHT22;2011;48.238;13.948;2022-12-20T04:43:58;-0.70;99.90
3994;DHT22;2011;48.238;13.948;2022-12-20T04:46:25;-0.70;99.90
3994;DHT22;2011;48.238;13.948;2022-12-20T04:48:52;-0.70;99.90
3994;DHT22;2011;48.238;13.948;2022-12-20T04:51:20;-0.70;99.90
3994;DHT22;2011;48.238;13.948;2022-12-20T04:53:46;-0.70;99.90
3994;DHT22;2011;48.238;13.948;2022-12-20T04:56:14;-0.70;99.90
3994;DHT22;2011;48.238;13.948;2022-12-20T04:58:43;-0.70;99.90
3994;DHT22;2011;48.238;13.948;2022-12-20T05:01:10;-0.60;99.90
3994;DHT22;2011;48.238;13.948;2022-12-20T05:03:37;-0.70;99.90
3994;DHT22;2011;48.238;13.948;2022-12-20T05:06:05;-0.80;99.90
3994;DHT22;2011;48.238;13.948;2022-12-20T05:08:33;-0.70;99.90
3994;DHT22;2011;48.238;13.948;2022-12-20T05:11:00;-0.70;99.90
3994;DHT22;2011;48.238;13.948;2022-12-20T05:13:27;-0.70;99.90
3994;DHT22;2011;48.238;13.948;2022-12-20T05:15:56;-0.70;99.90
3994;DHT22;2011;48.238;13.948;2022-12-20T05:18:24;-0.70;99.90
3994;DHT22;2011;48.238;13.948;2022-12-20T05:20:54;-0.70;99.90
3994;DHT22;2011;48.238;13.948;2022-12-20T05:23:35;-0.70;99.90
3994;DHT22;2011;48.238;13.948;2022-12-20T05:26:19;-0.70;99.90
3994;DHT22;2011;48.238;13.948;2022-12-20T05:28:47;-0.70;99.90
3994;DHT22;2011;48.238;13.948;2022-12-20T05:31:15;-0.70;99.90
3994;DHT22;2011;48.238;13.948;2022-12-20T05:33:42;-0.70;99.90
3994;DHT22;2011;48.238;13.948;2022-12-20T05:36:09;-0.80;99.90
3994;DHT22;2011;48.238;13.948;2022-12-20T05:38:36;-0.80;99.90
3994;DHT22;2011;48.238;13.948;2022-12-20T05:41:03;-0.80;99.90
3994;DHT22;2011;48.238;13.948;2022-12-20T05:43:31;-0.80;99.90
3994;DHT22;2011;48.238;13.948;2022-12-20T05:45:59;-0.80;99.90
3994;DHT22;2011;48.238;13.948;2022-12-20T05:48:28;-0.70;99.90
3994;DHT22;2011;48.238;13.948;2022-12-20T05:50:55;-0.70;99.90
3994;DHT22;2011;48.238;13.948;2022-12-20T05:53:22;-0.70;99.90
3994;DHT22;2011;48.238;13.948;2022-12-20T05:55:50;-0.70;99.90
3994;DHT22;2011;48.238;13.948;2022-12-20T05:58:18;-0.70;99.90
3994;DHT22;2011;48.238;13.948;2022-12-20T06:00:45;-0.70;99.90
3994;DHT22;2011;48.238;13.948;2022-12-20T06:03:12;-0.70;99.90
3994;DHT22;2011;48.238;13.948;2022-12-20T06:05:42;-0.70;99.90
3994;DHT22;2011;48.238;13.948;2022-12-20T06:08:10;-0.70;99.90
3994;DHT22;2011;48.238;13.948;2022-12-20T06:10:39;-0.70;99.90
3994;DHT22;2011;48.238;13.948;2022-12-20T06:13:07;-0.70;99.90
3994;DHT22;2011;48.238;13.948;2022-12-20T06:15:34;-0.70;99.90
3994;DHT22;2011;48.238;13.948;2022-12-20T06:18:01;-0.70;99.90
3994;DHT22;2011;48.238;13.948;2022-12-20T06:20:28;-0.70;99.90
3994;DHT22;2011;48.238;13.948;2022-12-20T06:22:57;-0.70;99.90
3994;DHT22;2011;48.238;13.948;2022-12-20T06:25:24;-0.70;99.90
3994;DHT22;2011;48.238;13.948;2022-12-20T06:27:51;-0.70;99.90
3994;DHT22;2011;48.238;13.948;2022-12-20T06:30:19;-0.70;99.90
3994;DHT22;2011;48.238;13.948;2022-12-20T06:32:46;-0.70;99.90
3994;DHT22;2011;48.238;13.948;2022-12-20T06:35:13;-0.70;99.90
3994;DHT22;2011;48.238;13.948;2022-12-20T06:37:41;-0.70;99.90
3994;DHT22;2011;48.238;13.948;2022-12-20T06:40:11;-0.70;99.90
3994;DHT22;2011;48.238;13.948;2022-12-20T06:42:38;-0.70;99.90
3994;DHT22;2011;48.238;13.948;2022-12-20T06:45:06;-0.70;99.90
3994;DHT22;2011;48.238;13.948;2022-12-20T06:47:34;-0.70;99.90
3994;DHT22;2011;48.238;13.948;2022-12-20T06:50:00;-0.70;99.90
3994;DHT22;2011;48.238;13.948;2022-12-20T06:52:27;-0.80;99.90
3994;DHT22;2011;48.238;13.948;2022-12-20T06:54:54;-0.80;99.90
3994;DHT22;2011;48.238;13.948;2022-12-20T06:57:22;-0.80;99.90
3994;DHT22;2011;48.238;13.948;2022-12-20T06:59:49;-0.80;99.90
3994;DHT22;2011;48.238;13.948;2022-12-20T07:02:16;-0.80;99.90
3994;DHT22;2011;48.238;13.948;2022-12-20T07:04:43;-0.80;99.90
3994;DHT22;2011;48.238;13.948;2022-12-20T07:07:11;-0.80;99.90
3994;DHT22;2011;48.238;13.948;2022-12-20T07:09:38;-0.80;99.90
3994;DHT22;2011;48.238;13.948;2022-12-20T07:12:06;-0.70;99.90
3994;DHT22;2011;48.238;13.948;2022-12-20T07:14:34;-0.70;99.90
3994;DHT22;2011;48.238;13.948;2022-12-20T07:17:01;-0.70;99.90
3994;DHT22;2011;48.238;13.948;2022-12-20T07:19:28;-0.60;99.90
3994;DHT22;2011;48.238;13.948;2022-12-20T07:21:55;-0.60;99.90
3994;DHT22;2011;48.238;13.948;2022-12-20T07:24:22;-0.60;99.90
3994;DHT22;2011;48.238;13.948;2022-12-20T07:26:49;-0.60;99.90
3994;DHT22;2011;48.238;13.948;2022-12-20T07:29:16;-0.60;99.90
3994;DHT22;2011;48.238;13.948;2022-12-20T07:31:44;-0.50;99.90
3994;DHT22;2011;48.238;13.948;2022-12-20T07:34:11;-0.50;99.90
3994;DHT22;2011;48.238;13.948;2022-12-20T07:36:40;-0.50;99.90
3994;DHT22;2011;48.238;13.948;2022-12-20T07:39:07;-0.50;99.90
3994;DHT22;2011;48.238;13.948;2022-12-20T07:41:34;-0.50;99.90
3994;DHT22;2011;48.238;13.948;2022-12-20T07:44:01;-0.50;99.90
3994;DHT22;2011;48.238;13.948;2022-12-20T07:46:28;-0.50;99.90
3994;DHT22;2011;48.238;13.948;2022-12-20T07:48:57;-0.40;99.90
3994;DHT22;2011;48.238;13.948;2022-12-20T07:51:25;-0.40;99.90
3994;DHT22;2011;48.238;13.948;2022-12-20T07:53:57;-0.40;99.90
3994;DHT22;2011;48.238;13.948;2022-12-20T07:56:25;-0.40;99.90
3994;DHT22;2011;48.238;13.948;2022-12-20T07:58:54;-0.40;99.90
3994;DHT22;2011;48.238;13.948;2022-12-20T08:01:23;-0.40;99.90
3994;DHT22;2011;48.238;13.948;2022-12-20T08:03:55;-0.30;99.90
3994;DHT22;2011;48.238;13.948;2022-12-20T08:06:24;-0.20;99.90
3994;DHT22;2011;48.238;13.948;2022-12-20T08:08:54;-0.20;99.90
3994;DHT22;2011;48.238;13.948;2022-12-20T08:11:23;-0.20;99.90
3994;DHT22;2011;48.238;13.948;2022-12-20T08:13:51;-0.30;99.90
3994;DHT22;2011;48.238;13.948;2022-12-20T08:16:18;0.00;99.90
3994;DHT22;2011;48.238;13.948;2022-12-20T08:18:45;0.00;99.90
3994;DHT22;2011;48.238;13.948;2022-12-20T08:21:12;0.00;99.90
3994;DHT22;2011;48.238;13.948;2022-12-20T08:23:41;0.10;99.90
3994;DHT22;2011;48.238;13.948;2022-12-20T08:26:08;0.10;99.90
3994;DHT22;2011;48.238;13.948;2022-12-20T08:28:35;0.10;99.90
3994;DHT22;2011;48.238;13.948;2022-12-20T08:31:03;0.10;99.90
3994;DHT22;2011;48.238;13.948;2022-12-20T08:33:31;0.10;99.90
3994;DHT22;2011;48.238;13.948;2022-12-20T08:36:01;0.10;99.90
3994;DHT22;2011;48.238;13.948;2022-12-20T08:38:28;0.20;99.90
3994;DHT22;2011;48.238;13.948;2022-12-20T08:41:00;0.20;99.90
3994;DHT22;2011;48.238;13.948;2022-12-20T08:43:28;0.20;99.90
3994;DHT22;2011;48.238;13.948;2022-12-20T08:45:55;0.10;99.90
3994;DHT22;2011;48.238;13.948;2022-12-20T08:48:22;0.10;99.90
3994;DHT22;2011;48.238;13.948;2022-12-20T08:50:53;0.10;99.90
3994;DHT22;2011;48.238;13.948;2022-12-20T08:53:21;0.10;99.90
3994;DHT22;2011;48.238;13.948;2022-12-20T08:55:48;0.10;99.90
3994;DHT22;2011;48.238;13.948;2022-12-20T08:58:16;0.20;99.90
3994;DHT22;2011;48.238;13.948;2022-12-20T09:00:43;0.20;99.90
3994;DHT22;2011;48.238;13.948;2022-12-20T09:03:11;0.30;99.90
3994;DHT22;2011;48.238;13.948;2022-12-20T09:05:43;0.20;99.90
3994;DHT22;2011;48.238;13.948;2022-12-20T09:08:13;0.30;99.90
3994;DHT22;2011;48.238;13.948;2022-12-20T09:10:41;0.30;99.90
3994;DHT22;2011;48.238;13.948;2022-12-20T09:13:08;0.40;99.90
3994;DHT22;2011;48.238;13.948;2022-12-20T09:15:37;0.50;99.90
3994;DHT22;2011;48.238;13.948;2022-12-20T09:18:04;0.50;99.90
3994;DHT22;2011;48.238;13.948;2022-12-20T09:20:31;0.60;99.90
3994;DHT22;2011;48.238;13.948;2022-12-20T09:22:59;0.60;99.90
3994;DHT22;2011;48.238;13.948;2022-12-20T09:25:26;0.60;99.90
3994;DHT22;2011;48.238;13.948;2022-12-20T09:27:54;0.70;99.90
3994;DHT22;2011;48.238;13.948;2022-12-20T09:30:21;0.80;99.90
3994;DHT22;2011;48.238;13.948;2022-12-20T09:32:50;0.80;99.90
3994;DHT22;2011;48.238;13.948;2022-12-20T09:35:17;0.80;99.90
3994;DHT22;2011;48.238;13.948;2022-12-20T09:37:44;0.80;99.90
3994;DHT22;2011;48.238;13.948;2022-12-20T09:40:16;0.70;99.90
3994;DHT22;2011;48.238;13.948;2022-12-20T09:42:46;0.70;99.90
3994;DHT22;2011;48.238;13.948;2022-12-20T09:45:24;0.70;99.90
3994;DHT22;2011;48.238;13.948;2022-12-20T09:47:54;0.70;99.90
3994;DHT22;2011;48.238;13.948;2022-12-20T09:50:32;0.80;99.90
3994;DHT22;2011;48.238;13.948;2022-12-20T09:53:12;0.80;99.90
3994;DHT22;2011;48.238;13.948;2022-12-20T09:55:46;0.90;99.90
3994;DHT22;2011;48.238;13.948;2022-12-20T09:58:31;0.90;99.90
3994;DHT22;2011;48.238;13.948;2022-12-20T10:01:10;0.90;99.90
3994;DHT22;2011;48.238;13.948;2022-12-20T10:03:42;1.00;99.90
3994;DHT22;2011;48.238;13.948;2022-12-20T10:06:16;1.00;99.90
3994;DHT22;2011;48.238;13.948;2022-12-20T10:08:50;0.90;99.90
3994;DHT22;2011;48.238;13.948;2022-12-20T10:11:50;1.00;99.90
3994;DHT22;2011;48.238;13.948;2022-12-20T10:14:31;1.00;99.90
3994;DHT22;2011;48.238;13.948;2022-12-20T10:17:04;1.00;99.90
3994;DHT22;2011;48.238;13.948;2022-12-20T10:22:31;1.10;99.90
3994;DHT22;2011;48.238;13.948;2022-12-20T10:25:12;1.10;99.90
3994;DHT22;2011;48.238;13.948;2022-12-20T10:27:40;1.20;99.90
3994;DHT22;2011;48.238;13.948;2022-12-20T10:30:11;1.30;99.90
3994;DHT22;2011;48.238;13.948;2022-12-20T10:32:39;1.40;99.90
3994;DHT22;2011;48.238;13.948;2022-12-20T10:35:21;1.40;99.90
3994;DHT22;2011;48.238;13.948;2022-12-20T10:37:57;1.40;99.90
3994;DHT22;2011;48.238;13.948;2022-12-20T10:40:26;1.40;99.90
3994;DHT22;2011;48.238;13.948;2022-12-20T10:42:54;1.40;99.90
3994;DHT22;2011;48.238;13.948;2022-12-20T10:45:28;1.50;99.90
3994;DHT22;2011;48.238;13.948;2022-12-20T10:47:59;1.50;99.90
3994;DHT22;2011;48.238;13.948;2022-12-20T10:50:27;1.60;99.90
3994;DHT22;2011;48.238;13.948;2022-12-20T10:53:19;1.60;99.90
3994;DHT22;2011;48.238;13.948;2022-12-20T10:55:46;1.70;99.90
3994;DHT22;2011;48.238;13.948;2022-12-20T10:58:16;1.80;99.90
3994;DHT22;2011;48.238;13.948;2022-12-20T11:00:43;1.80;99.90
3994;DHT22;2011;48.238;13.948;2022-12-20T11:03:15;1.80;99.90
3994;DHT22;2011;48.238;13.948;2022-12-20T11:05:55;1.70;99.90
3994;DHT22;2011;48.238;13.948;2022-12-20T11:08:23;1.70;99.90
3994;DHT22;2011;48.238;13.948;2022-12-20T11:11:10;1.70;99.90
3994;DHT22;2011;48.238;13.948;2022-12-20T11:13:38;1.70;99.90
3994;DHT22;2011;48.238;13.948;2022-12-20T11:16:22;1.60;99.90
3994;DHT22;2011;48.238;13.948;2022-12-20T11:18:57;1.50;99.90
3994;DHT22;2011;48.238;13.948;2022-12-20T11:21:34;1.60;99.90
3994;DHT22;2011;48.238;13.948;2022-12-20T11:24:10;1.60;99.90
3994;DHT22;2011;48.238;13.948;2022-12-20T11:26:52;1.60;99.90
3994;DHT22;2011;48.238;13.948;2022-12-20T11:29:36;1.60;99.90
3994;DHT22;2011;48.238;13.948;2022-12-20T11:32:18;1.60;99.90
3994;DHT22;2011;48.238;13.948;2022-12-20T11:34:53;1.70;99.90
3994;DHT22;2011;48.238;13.948;2022-12-20T11:37:26;1.70;99.90
3994;DHT22;2011;48.238;13.948;2022-12-20T11:40:05;1.70;99.90
3994;DHT22;2011;48.238;13.948;2022-12-20T11:42:49;1.60;99.90
3994;DHT22;2011;48.238;13.948;2022-12-20T11:45:23;1.60;99.90
3994;DHT22;2011;48.238;13.948;2022-12-20T11:48:08;1.60;99.90
3994;DHT22;2011;48.238;13.948;2022-12-20T11:50:48;1.60;99.90
3994;DHT22;2011;48.238;13.948;2022-12-20T11:53:21;1.60;99.90
3994;DHT22;2011;48.238;13.948;2022-12-20T11:55:52;1.60;99.90
3994;DHT22;2011;48.238;13.948;2022-12-20T11:58:24;1.60;99.90
3994;DHT22;2011;48.238;13.948;2022-12-20T12:00:54;1.60;99.90
3994;DHT22;2011;48.238;13.948;2022-12-20T12:03:27;1.70;99.90
3994;DHT22;2011;48.238;13.948;2022-12-20T12:05:58;1.70;99.90
3994;DHT22;2011;48.238;13.948;2022-12-20T12:08:33;1.70;99.90
3994;DHT22;2011;48.238;13.948;2022-12-20T12:11:08;1.60;99.90
3994;DHT22;2011;48.238;13.948;2022-12-20T12:13:39;1.60;99.90
3994;DHT22;2011;48.238;13.948;2022-12-20T12:16:10;1.60;99.90
3994;DHT22;2011;48.238;13.948;2022-12-20T12:18:38;1.70;99.90
3994;DHT22;2011;48.238;13.948;2022-12-20T12:21:09;1.70;99.90
3994;DHT22;2011;48.238;13.948;2022-12-20T12:23:48;1.80;99.90
3994;DHT22;2011;48.238;13.948;2022-12-20T12:26:19;1.80;99.90
3994;DHT22;2011;48.238;13.948;2022-12-20T12:28:50;1.80;99.90
3994;DHT22;2011;48.238;13.948;2022-12-20T12:31:24;1.90;99.90
3994;DHT22;2011;48.238;13.948;2022-12-20T12:34:03;1.90;99.90
3994;DHT22;2011;48.238;13.948;2022-12-20T12:36:54;1.90;99.90
3994;DHT22;2011;48.238;13.948;2022-12-20T12:42:36;1.90;99.90
3994;DHT22;2011;48.238;13.948;2022-12-20T12:45:14;1.90;99.90
3994;DHT22;2011;48.238;13.948;2022-12-20T12:47:44;2.00;99.90
3994;DHT22;2011;48.238;13.948;2022-12-20T12:50:20;2.10;99.90
3994;DHT22;2011;48.238;13.948;2022-12-20T12:52:50;2.10;99.90
3994;DHT22;2011;48.238;13.948;2022-12-20T12:55:43;2.10;99.90
3994;DHT22;2011;48.238;13.948;2022-12-20T12:58:31;2.10;99.90
3994;DHT22;2011;48.238;13.948;2022-12-20T13:01:00;2.20;99.90
3994;DHT22;2011;48.238;13.948;2022-12-20T13:03:43;2.20;99.90
3994;DHT22;2011;48.238;13.948;2022-12-20T13:06:41;2.30;99.90
3994;DHT22;2011;48.238;13.948;2022-12-20T13:09:20;2.30;99.90
3994;DHT22;2011;48.238;13.948;2022-12-20T13:11:49;2.30;99.90
3994;DHT22;2011;48.238;13.948;2022-12-20T13:14:48;2.30;99.90
3994;DHT22;2011;48.238;13.948;2022-12-20T13:17:43;2.20;99.90
3994;DHT22;2011;48.238;13.948;2022-12-20T13:20:17;2.10;99.90
3994;DHT22;2011;48.238;13.948;2022-12-20T13:23:13;2.10;99.90
3994;DHT22;2011;48.238;13.948;2022-12-20T13:25:43;2.10;99.90
3994;DHT22;2011;48.238;13.948;2022-12-20T13:28:43;2.10;99.90
3994;DHT22;2011;48.238;13.948;2022-12-20T13:31:30;2.10;99.90
3994;DHT22;2011;48.238;13.948;2022-12-20T13:33:59;2.10;99.90
3994;DHT22;2011;48.238;13.948;2022-12-20T13:36:34;2.10;99.90
3994;DHT22;2011;48.238;13.948;2022-12-20T13:39:30;2.10;99.90
3994;DHT22;2011;48.238;13.948;2022-12-20T13:42:23;2.00;99.90
3994;DHT22;2011;48.238;13.948;2022-12-20T13:44:54;2.00;99.90
3994;DHT22;2011;48.238;13.948;2022-12-20T13:47:39;1.90;99.90
3994;DHT22;2011;48.238;13.948;2022-12-20T13:50:26;1.80;99.90
3994;DHT22;2011;48.238;13.948;2022-12-20T13:52:54;1.80;99.90
3994;DHT22;2011;48.238;13.948;2022-12-20T13:55:31;1.80;99.90
3994;DHT22;2011;48.238;13.948;2022-12-20T13:58:09;1.80;99.90
3994;DHT22;2011;48.238;13.948;2022-12-20T14:00:38;1.70;99.90
3994;DHT22;2011;48.238;13.948;2022-12-20T14:03:17;1.70;99.90
3994;DHT22;2011;48.238;13.948;2022-12-20T14:05:45;1.70;99.90
3994;DHT22;2011;48.238;13.948;2022-12-20T14:08:15;1.70;99.90
3994;DHT22;2011;48.238;13.948;2022-12-20T14:10:42;1.60;99.90
3994;DHT22;2011;48.238;13.948;2022-12-20T14:13:20;1.60;99.90
3994;DHT22;2011;48.238;13.948;2022-12-20T14:15:49;1.50;99.90
3994;DHT22;2011;48.238;13.948;2022-12-20T14:18:18;1.50;99.90
3994;DHT22;2011;48.238;13.948;2022-12-20T14:20:47;1.50;99.90
3994;DHT22;2011;48.238;13.948;2022-12-20T14:23:16;1.50;99.90
3994;DHT22;2011;48.238;13.948;2022-12-20T14:25:46;1.50;99.90
3994;DHT22;2011;48.238;13.948;2022-12-20T14:28:21;1.40;99.90
3994;DHT22;2011;48.238;13.948;2022-12-20T14:30:52;1.40;99.90
3994;DHT22;2011;48.238;13.948;2022-12-20T14:33:23;1.40;99.90
3994;DHT22;2011;48.238;13.948;2022-12-20T14:35:52;1.40;99.90
3994;DHT22;2011;48.238;13.948;2022-12-20T14:38:21;1.40;99.90
3994;DHT22;2011;48.238;13.948;2022-12-20T14:40:48;1.40;99.90
3994;DHT22;2011;48.238;13.948;2022-12-20T14:43:20;1.40;99.90
3994;DHT22;2011;48.238;13.948;2022-12-20T14:45:49;1.40;99.90
3994;DHT22;2011;48.238;13.948;2022-12-20T14:48:33;1.40;99.90
3994;DHT22;2011;48.238;13.948;2022-12-20T14:51:04;1.40;99.90
3994;DHT22;2011;48.238;13.948;2022-12-20T14:53:31;1.30;99.90
3994;DHT22;2011;48.238;13.948;2022-12-20T14:55:59;1.30;99.90
3994;DHT22;2011;48.238;13.948;2022-12-20T14:58:27;1.30;99.90
3994;DHT22;2011;48.238;13.948;2022-12-20T15:00:56;1.20;99.90
3994;DHT22;2011;48.238;13.948;2022-12-20T15:03:24;1.20;99.90
3994;DHT22;2011;48.238;13.948;2022-12-20T15:05:53;1.20;99.90
3994;DHT22;2011;48.238;13.948;2022-12-20T15:08:23;1.10;99.90
3994;DHT22;2011;48.238;13.948;2022-12-20T15:11:00;1.10;99.90
3994;DHT22;2011;48.238;13.948;2022-12-20T15:13:31;1.10;99.90
3994;DHT22;2011;48.238;13.948;2022-12-20T15:15:59;1.00;99.90
3994;DHT22;2011;48.238;13.948;2022-12-20T15:18:27;1.00;99.90
3994;DHT22;2011;48.238;13.948;2022-12-20T15:21:01;0.90;99.90
3994;DHT22;2011;48.238;13.948;2022-12-20T15:23:29;0.90;99.90
3994;DHT22;2011;48.238;13.948;2022-12-20T15:25:57;0.90;99.90
3994;DHT22;2011;48.238;13.948;2022-12-20T15:28:25;0.80;99.90
3994;DHT22;2011;48.238;13.948;2022-12-20T15:30:52;0.80;99.90
3994;DHT22;2011;48.238;13.948;2022-12-20T15:33:22;0.80;99.90
3994;DHT22;2011;48.238;13.948;2022-12-20T15:35:49;0.70;99.90
3994;DHT22;2011;48.238;13.948;2022-12-20T15:38:20;0.70;99.90
3994;DHT22;2011;48.238;13.948;2022-12-20T15:40:50;0.70;99.90
3994;DHT22;2011;48.238;13.948;2022-12-20T15:43:19;0.70;99.90
3994;DHT22;2011;48.238;13.948;2022-12-20T15:45:50;0.60;99.90
3994;DHT22;2011;48.238;13.948;2022-12-20T15:48:20;0.60;99.90
3994;DHT22;2011;48.238;13.948;2022-12-20T15:50:52;0.60;99.90
3994;DHT22;2011;48.238;13.948;2022-12-20T15:53:24;0.60;99.90
3994;DHT22;2011;48.238;13.948;2022-12-20T15:55:54;0.60;99.90
3994;DHT22;2011;48.238;13.948;2022-12-20T15:58:22;0.60;99.90
3994;DHT22;2011;48.238;13.948;2022-12-20T16:00:53;0.60;99.90
3994;DHT22;2011;48.238;13.948;2022-12-20T16:03:22;0.60;99.90
3994;DHT22;2011;48.238;13.948;2022-12-20T16:05:50;0.60;99.90
3994;DHT22;2011;48.238;13.948;2022-12-20T16:08:17;0.60;99.90
3994;DHT22;2011;48.238;13.948;2022-12-20T16:10:46;0.60;99.90
3994;DHT22;2011;48.238;13.948;2022-12-20T16:13:14;0.60;99.90
3994;DHT22;2011;48.238;13.948;2022-12-20T16:15:42;0.60;99.90
3994;DHT22;2011;48.238;13.948;2022-12-20T16:18:09;0.60;99.90
3994;DHT22;2011;48.238;13.948;2022-12-20T16:20:36;0.50;99.90
3994;DHT22;2011;48.238;13.948;2022-12-20T16:23:03;0.50;99.90